Jennerstown, Pennsylvania
Current Conditions -  °F | °C
As of 7:54 AM on Sunday 23 Nov 2014 (Local Time) from KJST Reporting Station
Clear Clear  
Wind Chill: 45°   Ceiling: Unl
Heat Index: 48°   Visibility: 10mi
Dew Point: 27°   Wind: 6mph
Humidity: 44%   Direction: 210°SSW
Pressure: 30.11"   Gusts: NA
Location:  40.16°N, 79.07°W
Report Text: KJST 231254Z AUTO 21005KT 10SM CLR 09/M03 A3011 RMK AO2 SLP203 T00891028
Loading
Personal Weather Stations






























Interactive Weather Map New forecast layout! Learn more

10-Day Weather Forecast

Advertisements
Track Severe Weather on mobile